• Join FlightAware (Why Join?)
  • Login
  • US Flag 
04:19AM EDT


 

Airport Tracker/Info


-or-


 

Live Flight TrackerFlight Track Log ✈ EJM826 ✈ 05-Jun-2014 ✈ KMTH - KHOU

Flight Track Log - Related Links

Times and Time Zones

All times are in EDT time to prevent confusion due to time zone crossing. See the EJM826 flight status page for this flight to view local times or setup timezone preferences in your user account.

Time Position Orientation Groundspeed Altitude Reporting Facility
EDT Latitude Longitude Course Direction KTS MPH feet Rate Location/Type
03:15PM 24.7544 -81.0119 338° Northwest 179 206 2,200  Level Miami Center
03:16PM 24.8069 -81.0436 331° Northwest 224 258 5,500 3,000 Climbing Miami Center
03:17PM 24.8606 -81.1144 310° West 240 276 8,500 2,520 Climbing Miami Center
03:18PM 24.9125 -81.1850 309° West 267 307 10,800 1,680 Climbing Miami Center
03:19PM 24.9703 -81.2633 309° West 304 350 12,000 480 Climbing Miami Center
03:20PM 25.0372 -81.3506 310° West 354 407 11,900  Descending Miami Center
03:21PM 25.1741 -81.3051 338° Northwest  Level FlightAware Approximate
03:21PM 25.1003 -81.4336 310° West 360 414 12,100  Level Miami Center
03:23PM 25.1611 -81.5444 301° West 357 411 14,400 2,280 Climbing Miami Center
03:24PM 25.2108 -81.6411 300° West 363 418 16,900 2,460 Climbing Miami Center
03:25PM 25.2608 -81.7397 299° West 357 411 19,500 1,980 Climbing Miami Center
03:26PM 25.3086 -81.8331 300° West 350 403 21,000 1,500 Climbing Miami Center
03:27PM 25.3600 -81.9328 300° West 369 425 22,600 1,440 Climbing Miami Center
03:28PM 25.4089 -82.0275 300° West 374 430 24,000 1,560 Climbing Miami Center
03:29PM 25.4722 -82.1506 300° West 381 438 25,900 1,560 Climbing Miami Center
03:30PM 25.5267 -82.2558 300° West 389 448 27,300 1,200 Climbing Miami Center
03:31PM 25.5806 -82.3636 299° West 396 456 28,500 1,200 Climbing Miami Center
03:32PM 25.6350 -82.4725 299° West 401 461 29,800 1,200 Climbing Miami Center
03:33PM 25.6919 -82.5833 300° West 413 475 31,100 1,260 Climbing Miami Center
03:34PM 25.7594 -82.7183 299° West 415 478 32,500 1,440 Climbing Miami Center
03:35PM 25.8156 -82.8308 299° West 416 479 34,100 1,440 Climbing Miami Center
03:36PM 25.8719 -82.9428 299° West 418 481 35,500 1,800 Climbing Miami Center
03:37PM 25.9281 -83.0561 299° West 413 475 37,900 1,980 Climbing Miami Center
03:38PM 25.9794 -83.1583 299° West 384 442 39,600 960 Climbing Miami Center
03:39PM 26.0319 -83.2628 299° West 386 444 40,000 180 Climbing Miami Center
03:40PM 26.0875 -83.3742 299° West 408 470 40,000  Level Miami Center
03:41PM 26.1533 -83.5089 299° West 411 473 40,000  Level Miami Center
03:42PM 26.2089 -83.6206 299° West 412 474 40,000  Level Miami Center
03:43PM 26.2633 -83.7331 298° West 412 474 40,000  Level Miami Center
03:44PM 26.3194 -83.8450 299° West 413 475 40,100 480 Climbing Miami Center
03:45PM 26.3736 -83.9558 299° West 411 473 41,100 960 Climbing Miami Center
03:46PM 26.4278 -84.0661 299° West 409 471 42,100 900 Climbing Miami Center
03:47PM 26.4803 -84.1756 298° West 405 466 43,000 420 Climbing Miami Center
03:48PM 26.5467 -84.3092 299° West 407 468 43,000  Level Miami Center
03:49PM 26.6022 -84.4231 299° West 415 478 43,000 -60 Level Miami Center
03:50PM 26.6569 -84.5364 298° West 415 478 42,900  Descending Miami Center
03:51PM 26.7022 -84.6300 298° West 425 489 43,000  Climbing Houston Center
03:52PM 26.7575 -84.7447 298° West 424 488 43,000  Level Houston Center
03:53PM 26.8233 -84.8814 298° West 421 484 43,000  Level Houston Center
03:54PM 26.8783 -84.9961 298° West 420 483 43,000  Level Houston Center
03:55PM 26.9336 -85.1119 298° West 420 483 43,000  Level Houston Center
03:56PM 26.9889 -85.2269 298° West 420 483 43,000  Level Houston Center
03:57PM 27.0439 -85.3436 298° West 420 483 43,000  Level Houston Center
03:59PM 27.1061 -85.4744 298° West 424 488 43,000  Level Houston Center
03:59PM 27.1522 -85.5733 298° West 417 480 43,000  Level Jacksonville Center
04:00PM 27.2081 -85.6936 298° West 417 480 43,000  Level Jacksonville Center
04:01PM 27.2636 -85.8211 296° West 423 487 43,000  Level Jacksonville Center
04:02PM 27.3172 -85.9325 298° West 416 479 43,000  Level Jacksonville Center
04:03PM 27.3708 -86.0461 298° West 416 479 43,000  Level Jacksonville Center
04:04PM 27.4261 -86.1669 297° West 416 479 43,000  Level Jacksonville Center
04:05PM 27.4817 -86.2811 299° West 414 476 43,000  Level Jacksonville Center
04:06PM 27.5350 -86.3950 298° West 419 482 43,000  Level Jacksonville Center
04:07PM 27.5900 -86.5186 297° West 415 478 43,000  Level Jacksonville Center
04:08PM 27.6411 -86.6233 299° West 409 471 43,000  Level Jacksonville Center
04:09PM 27.6958 -86.7472 297° West 411 473 43,000  Level Jacksonville Center
04:10PM 27.7508 -86.8667 298° West 423 487 43,000  Level Jacksonville Center
04:11PM 27.7803 -86.9242 300° West 419 482 43,000  Level Houston Center
04:12PM 27.8344 -87.0442 297° West 419 482 43,000  Level Houston Center
04:13PM 27.8867 -87.1597 297° West 419 482 43,000  Level Houston Center
04:14PM 27.9406 -87.2772 297° West 420 483 43,000  Level Houston Center
04:15PM 28.0042 -87.4169 297° West 420 483 43,000  Level Houston Center
04:16PM 28.0575 -87.5361 297° West 420 483 43,000  Level Houston Center
04:17PM 28.1100 -87.6547 297° West 420 483 43,000  Level Houston Center
04:18PM 28.1633 -87.7717 297° West 420 483 43,000  Level Houston Center
04:19PM 28.2158 -87.8889 297° West 420 483 43,000  Level Houston Center
04:20PM 28.2783 -88.0300 297° West 420 483 43,000  Level Houston Center
04:21PM 28.3306 -88.1486 297° West 419 482 43,000  Level Houston Center
04:22PM 28.3814 -88.2664 296° West 419 482 43,000  Level Houston Center
04:23PM 28.4342 -88.3839 297° West 419 482 43,000  Level Houston Center
04:24PM 28.4867 -88.5022 297° West 419 482 43,000  Level Houston Center
04:25PM 28.5389 -88.6222 296° West 420 483 43,000  Level Houston Center
04:26PM 28.6006 -88.7650 296° West 420 483 43,000  Level Houston Center
04:28PM 28.6531 -88.8833 297° West 422 486 43,000  Level Houston Center
04:29PM 28.7044 -89.0028 296° West 420 483 43,000  Level Houston Center
04:30PM 28.7553 -89.1194 296° West 418 481 43,000  Level Houston Center
04:31PM 28.8067 -89.2378 296° West 417 480 43,000  Level Houston Center
04:32PM 28.8575 -89.3583 296° West 418 481 43,000  Level Houston Center
04:33PM 28.9186 -89.5011 296° West 418 481 43,000  Level Houston Center
04:34PM 28.9708 -89.6222 296° West 420 483 43,000  Level Houston Center
04:35PM 29.0228 -89.7433 296° West 422 486 43,000  Level Houston Center
04:36PM 29.0750 -89.8669 296° West 427 491 43,000  Level Houston Center
04:37PM 29.1000 -90.0006 282° West 430 495 43,000  Level Houston Center
04:38PM 29.1103 -90.1411 275° West 440 506 43,000  Level Houston Center
04:39PM 29.1211 -90.3078 274° West 440 506 43,000  Level Houston Center
04:40PM 29.1292 -90.4450 274° West 435 501 43,000  Level Houston Center
04:41PM 29.1383 -90.5833 274° West 436 502 43,000  Level Houston Center
04:42PM 29.1469 -90.7178 274° West 430 495 43,000  Level Houston Center
04:43PM 29.1542 -90.8517 274° West 427 491 43,000  Level Houston Center
04:49PM 29.1289 -91.5451 259° West 422 486 43,000  Level FlightAware ADS-B (KHOU)
04:49PM 29.1070 -91.6730 259° West 422 486 43,000  Level FlightAware ADS-B (KHOU)
04:49PM 29.1000 -91.7145 259° West 422 486 43,000  Level FlightAware ADS-B (KHOU)
04:52PM 29.1101 -92.0799 259° West 422 486 43,000  Level FlightAware ADS-B (KHOU)
04:53PM 29.1186 -92.1408 280° West 420 483 43,000  Level FlightAware ADS-B (KHOU)
04:53PM 29.1269 -92.2004 280° West 421 484 43,000  Level FlightAware ADS-B (KHOU)
04:54PM 29.1368 -92.2722 279° West 423 487 43,000  Level FlightAware ADS-B (KHOU)
04:54PM 29.1461 -92.3396 279° West 423 487 43,000  Level FlightAware ADS-B (KHOU)
04:55PM 29.1556 -92.4082 279° West 420 483 43,000  Level FlightAware ADS-B (KHOU)
04:55PM 29.1649 -92.4759 279° West 418 481 43,000  Level FlightAware ADS-B (KHOU)
04:56PM 29.1735 -92.5393 279° West 418 481 43,000  Level FlightAware ADS-B (KHOU)
04:56PM 29.1817 -92.5996 279° West 419 482 43,000  Level FlightAware ADS-B (KHOU)
04:57PM 29.1909 -92.6673 279° West 417 480 43,000  Level FlightAware ADS-B (KHOU)
04:57PM 29.1997 -92.7326 279° West 417 480 43,000  Level FlightAware ADS-B (KHOU)
04:58PM 29.2092 -92.8029 279° West 417 480 43,000  Level FlightAware ADS-B (KHOU)
04:58PM 29.2169 -92.8599 279° West 417 480 43,000  Level FlightAware ADS-B (KHOU)
04:59PM 29.2264 -92.9313 279° West 415 478 43,000 -900 Level FlightAware ADS-B (KHOU)
04:59PM 29.2368 -93.0101 279° West 417 480 42,000 -1,740 Descending FlightAware ADS-B (KHOU)
05:00PM 29.2461 -93.0804 279° West 430 495 41,000 -1,980 Descending FlightAware ADS-B (KHOU)
05:01PM 29.2577 -93.1681 279° West 444 511 39,700 -1,980 Descending FlightAware ADS-B (KHOU)
05:01PM 29.2683 -93.2485 279° West 440 506 38,700 -2,040 Descending FlightAware ADS-B (KHOU)
05:02PM 29.2771 -93.3154 279° West 447 514 37,700 -2,040 Descending FlightAware ADS-B (KHOU)
05:02PM 29.2867 -93.3898 279° West 455 524 36,700 -1,980 Descending FlightAware ADS-B (KHOU)
05:03PM 29.2951 -93.4552 279° West 456 525 35,700 -2,040 Descending FlightAware ADS-B (KHOU)
05:03PM 29.3046 -93.5285 279° West 457 526 34,700 -1,980 Descending FlightAware ADS-B (KHOU)
05:04PM 29.3142 -93.6031 279° West 456 525 33,700 -2,040 Descending FlightAware ADS-B (KHOU)
05:04PM 29.3236 -93.6766 279° West 454 522 32,700 -2,040 Descending FlightAware ADS-B (KHOU)
05:05PM 29.3324 -93.7465 279° West 441 507 31,700 -2,040 Descending FlightAware ADS-B (KHOU)
05:05PM 29.3410 -93.8134 279° West 435 501 30,700 -2,040 Descending FlightAware ADS-B (KHOU)
05:06PM 29.3496 -93.8823 278° West 431 496 29,700 -1,980 Descending FlightAware ADS-B (KHOU)
05:06PM 29.3528 -93.9509 274° West 428 493 28,700 -2,040 Descending FlightAware ADS-B (KHOU)
05:07PM 29.3563 -94.0126 274° West 423 487 27,700 -2,040 Descending FlightAware ADS-B (KHOU)
05:07PM 29.3603 -94.0820 274° West 419 482 26,700 -1,980 Descending FlightAware ADS-B (KHOU)
05:08PM 29.3642 -94.1507 274° West 414 476 25,700 -1,980 Descending FlightAware ADS-B (KHOU)
05:08PM 29.3679 -94.2171 274° West 408 470 24,700 -2,040 Descending FlightAware ADS-B (KHOU)
05:09PM 29.3717 -94.2812 275° West 406 467 23,700 -2,100 Descending FlightAware ADS-B (KHOU)
05:09PM 29.3760 -94.3457 275° West 406 467 22,600 -2,640 Descending FlightAware ADS-B (KHOU)
05:10PM 29.3816 -94.4092 279° West 400 460 21,100 -2,880 Descending FlightAware ADS-B (KHOU)
05:10PM 29.3884 -94.4706 277° West 388 447 19,800 -2,700 Descending FlightAware ADS-B (KHOU)
05:11PM 29.3945 -94.5311 277° West 377 434 18,500 -2,640 Descending FlightAware ADS-B (KHOU)
05:11PM 29.4005 -94.5892 277° West 370 426 17,200 -2,880 Descending FlightAware ADS-B (KHOU)
05:12PM 29.4073 -94.6485 279° West 358 412 15,600 -3,180 Descending FlightAware ADS-B (KHOU)
05:12PM 29.4117 -94.6677 287° West 324 373 15,000 -2,820 Descending FlightAware ADS-B
05:13PM 29.4145 -94.6776 288° West 323 372 12,100 -1,920 Descending FlightAware ADS-B
05:15PM 29.5095 -94.9384 293° West 291 335 9,400 -1,380 Descending FlightAware ADS-B
05:15PM 29.5204 -94.9695 293° West 286 329 9,100 -1,020 Descending FlightAware ADS-B
05:16PM 29.5379 -95.0172 293° West 298 343 8,500 -1,020 Descending FlightAware ADS-B
05:17PM 29.5799 -95.1377 292° West 293 337 7,200 -900 Descending FlightAware ADS-B
05:17PM 29.5877 -95.1741 282° West 280 322 6,900 -660 Descending FlightAware ADS-B (KHOU)
05:18PM 29.5927 -95.2035 282° West 279 321 6,700 -540 Descending FlightAware ADS-B (KHOU)
05:18PM 29.5964 -95.2247 282° West 279 321 6,600 -600 Descending FlightAware ADS-B (KHOU)
05:18PM 29.6003 -95.2471 282° West 279 321 6,400 -600 Descending FlightAware ADS-B (KHOU)
05:18PM 29.6046 -95.2713 282° West 274 315 6,300 -420 Descending FlightAware ADS-B (EBAW / ANR)
05:19PM 29.6086 -95.2938 282° West 263 303 6,200 -360 Descending FlightAware ADS-B (EBAW / ANR)
05:19PM 29.6133 -95.3194 283° West 239 275 6,100 -720 Descending FlightAware ADS-B (EBAW / ANR)
05:19PM 29.6173 -95.3381 285° West 234 269 5,800 -1,620 Descending FlightAware ADS-B (EBAW / ANR)
05:20PM 29.6214 -95.3560 285° West 238 274 5,300 -1,980 Descending FlightAware ADS-B (EBAW / ANR)
05:20PM 29.6250 -95.3714 287° West 242 278 4,900 -2,040 Descending FlightAware ADS-B (KHOU)
05:20PM 29.6268 -95.3774 291° West 244 281 4,700 -2,040 Descending FlightAware ADS-B (KHOU)
05:20PM 29.6318 -95.3892 300° West 248 285 4,400 -2,040 Descending FlightAware ADS-B (KHOU)
05:20PM 29.6349 -95.3945 307° West 250 288 4,200 -2,520 Descending FlightAware ADS-B (KHOU)
05:20PM 29.6412 -95.4020 317° Northwest 251 289 3,900 -1,620 Descending FlightAware ADS-B (EBAW / ANR)
05:21PM 29.6538 -95.4159 316° Northwest 246 283 3,600 -1,440 Descending FlightAware ADS-B (EBAW / ANR)
05:21PM 29.6656 -95.4301 313° West 244 281 3,200 -1,260 Descending FlightAware ADS-B (EBAW / ANR)
05:21PM 29.6716 -95.4374 319° Northwest 234 269 3,000 -600 Descending FlightAware ADS-B (EBAW / ANR)
05:21PM 29.6820 -95.4466 331° Northwest 230 265 3,000 -600 Level FlightAware ADS-B (EBAW / ANR)
05:21PM 29.6855 -95.4482 342° North 228 262 2,900 -720 Descending FlightAware ADS-B (EBAW / ANR)
05:21PM 29.6910 -95.4494 352° North 228 262 2,900 -600 Level FlightAware ADS-B (EBAW / ANR)
05:21PM 29.6975 -95.4491 North 228 262 2,800 -1,200 Descending FlightAware ADS-B (EBAW / ANR)
05:21PM 29.7022 -95.4478 18° North 227 261 2,700 -600 Descending FlightAware ADS-B (EBAW / ANR)
05:21PM 29.7057 -95.4460 27° Northeast 226 260 2,700 -600 Level FlightAware ADS-B (EBAW / ANR)
05:22PM 29.7106 -95.4421 38° Northeast 223 257 2,600 -1,200 Descending FlightAware ADS-B (EBAW / ANR)
05:22PM 29.7149 -95.4370 49° Northeast 222 255 2,500 -1,200 Descending FlightAware ADS-B (EBAW / ANR)
05:22PM 29.7174 -95.4324 58° Northeast 219 252 2,400 -960 Descending FlightAware ADS-B (EBAW / ANR)
05:22PM 29.7205 -95.4246 67° East 217 250 2,300 -480 Descending FlightAware ADS-B (KHOU)
05:22PM 29.7221 -95.4196 71° East 216 249 2,300 -840 Level FlightAware ADS-B (KHOU)
05:22PM 29.7249 -95.4080 77° East 212 244 2,100 -480 Descending FlightAware ADS-B (KHOU)
05:22PM 29.7271 -95.3920 82° East 201 231 2,100  Level FlightAware ADS-B (KHOU)
05:22PM 29.7275 -95.3865 88° East 199 229 2,100  Level FlightAware ADS-B (KHOU)
05:23PM 29.7271 -95.3814 96° East 196 226 2,100 840 Level FlightAware ADS-B (KHOU)
05:23PM 29.7265 -95.3787 103° East 193 222 2,200 720 Climbing FlightAware ADS-B (EBAW / ANR)
05:23PM 29.7249 -95.3742 115° Southeast 187 215 2,200 -600 Level FlightAware ADS-B (EBAW / ANR)
05:23PM 29.7222 -95.3699 127° Southeast 183 211 2,100 -900 Descending FlightAware ADS-B (EBAW / ANR)
05:23PM 29.7139 -95.3595 132° Southeast 175 201 1,900 -840 Descending FlightAware ADS-B (EBAW / ANR)
05:23PM 29.7062 -95.3502 133° Southeast 165 190 1,700 -840 Descending FlightAware ADS-B (EBAW / ANR)
05:24PM 29.6979 -95.3401 133° Southeast 162 186 1,500 -840 Descending FlightAware ADS-B (EBAW / ANR)
05:24PM 29.6904 -95.3315 135° Southeast 152 175 1,300 -1,080 Descending FlightAware ADS-B (EBAW / ANR)
05:24PM 29.6848 -95.3253 135° Southeast 154 177 1,000 -720 Descending FlightAware ADS-B (EBAW / ANR)
05:25PM 29.6677 -95.3052 134° Southeast 123 142 700 -720 Descending FlightAware ADS-B (EBAW / ANR)
05:25PM 29.6606 -95.2968 133° Southeast 116 133 400 -660 Descending FlightAware ADS-B (EBAW / ANR)
05:26PM 29.6447 -95.2764 133° Southeast 151 174 100 -480 Descending Houston Center